sensor_id;sensor_type;location;lat;lon;timestamp;P1;durP1;ratioP1;P2;durP2;ratioP2
7471;SDS011;3777;48.722;8.110;2022-12-22T00:02:08;2.20;;;2.00;;
7471;SDS011;3777;48.722;8.110;2022-12-22T00:04:56;2.07;;;1.80;;
7471;SDS011;3777;48.722;8.110;2022-12-22T00:07:40;3.60;;;2.00;;
7471;SDS011;3777;48.722;8.110;2022-12-22T00:10:25;2.97;;;1.90;;
7471;SDS011;3777;48.722;8.110;2022-12-22T00:13:09;2.20;;;1.93;;
7471;SDS011;3777;48.722;8.110;2022-12-22T00:15:57;2.20;;;1.87;;
7471;SDS011;3777;48.722;8.110;2022-12-22T00:18:41;2.67;;;2.00;;
7471;SDS011;3777;48.722;8.110;2022-12-22T00:21:26;2.27;;;2.07;;
7471;SDS011;3777;48.722;8.110;2022-12-22T00:24:12;2.27;;;2.07;;
7471;SDS011;3777;48.722;8.110;2022-12-22T00:26:56;3.90;;;2.37;;
7471;SDS011;3777;48.722;8.110;2022-12-22T00:29:40;2.97;;;2.27;;
7471;SDS011;3777;48.722;8.110;2022-12-22T00:32:31;4.57;;;2.40;;
7471;SDS011;3777;48.722;8.110;2022-12-22T00:35:18;5.13;;;2.30;;
7471;SDS011;3777;48.722;8.110;2022-12-22T00:38:08;4.30;;;2.10;;
7471;SDS011;3777;48.722;8.110;2022-12-22T00:40:57;4.03;;;2.20;;
7471;SDS011;3777;48.722;8.110;2022-12-22T00:43:41;2.80;;;2.40;;
7471;SDS011;3777;48.722;8.110;2022-12-22T00:46:25;3.77;;;2.00;;
7471;SDS011;3777;48.722;8.110;2022-12-22T00:49:11;2.90;;;2.10;;
7471;SDS011;3777;48.722;8.110;2022-12-22T00:51:57;2.97;;;2.53;;
7471;SDS011;3777;48.722;8.110;2022-12-22T00:54:41;5.23;;;2.50;;
7471;SDS011;3777;48.722;8.110;2022-12-22T00:57:26;2.13;;;1.80;;
7471;SDS011;3777;48.722;8.110;2022-12-22T01:00:13;3.43;;;1.80;;
7471;SDS011;3777;48.722;8.110;2022-12-22T01:02:59;2.73;;;2.00;;
7471;SDS011;3777;48.722;8.110;2022-12-22T01:05:45;2.67;;;2.03;;
7471;SDS011;3777;48.722;8.110;2022-12-22T01:08:30;3.07;;;2.27;;
7471;SDS011;3777;48.722;8.110;2022-12-22T01:11:15;4.90;;;2.30;;
7471;SDS011;3777;48.722;8.110;2022-12-22T01:14:00;2.30;;;2.00;;
7471;SDS011;3777;48.722;8.110;2022-12-22T01:16:44;3.10;;;1.73;;
7471;SDS011;3777;48.722;8.110;2022-12-22T01:19:29;5.03;;;2.00;;
7471;SDS011;3777;48.722;8.110;2022-12-22T01:22:14;3.10;;;1.80;;
7471;SDS011;3777;48.722;8.110;2022-12-22T01:25:07;3.03;;;1.83;;
7471;SDS011;3777;48.722;8.110;2022-12-22T01:27:54;2.60;;;1.60;;
7471;SDS011;3777;48.722;8.110;2022-12-22T01:30:38;3.40;;;1.80;;
7471;SDS011;3777;48.722;8.110;2022-12-22T01:33:22;2.43;;;1.70;;
7471;SDS011;3777;48.722;8.110;2022-12-22T01:36:06;2.77;;;1.70;;
7471;SDS011;3777;48.722;8.110;2022-12-22T01:38:52;4.40;;;1.80;;
7471;SDS011;3777;48.722;8.110;2022-12-22T01:41:36;2.00;;;1.57;;
7471;SDS011;3777;48.722;8.110;2022-12-22T01:44:22;2.33;;;1.80;;
7471;SDS011;3777;48.722;8.110;2022-12-22T01:47:29;6.90;;;1.70;;
7471;SDS011;3777;48.722;8.110;2022-12-22T01:50:23;2.53;;;1.67;;
7471;SDS011;3777;48.722;8.110;2022-12-22T01:53:11;2.30;;;1.80;;
7471;SDS011;3777;48.722;8.110;2022-12-22T01:56:02;3.33;;;1.70;;
7471;SDS011;3777;48.722;8.110;2022-12-22T01:58:48;3.73;;;2.00;;
7471;SDS011;3777;48.722;8.110;2022-12-22T02:01:37;3.80;;;1.87;;
7471;SDS011;3777;48.722;8.110;2022-12-22T02:04:23;3.23;;;1.80;;
7471;SDS011;3777;48.722;8.110;2022-12-22T02:07:15;3.60;;;2.03;;
7471;SDS011;3777;48.722;8.110;2022-12-22T02:10:13;2.87;;;1.83;;
7471;SDS011;3777;48.722;8.110;2022-12-22T02:13:10;2.63;;;1.80;;
7471;SDS011;3777;48.722;8.110;2022-12-22T02:16:10;3.90;;;1.60;;
7471;SDS011;3777;48.722;8.110;2022-12-22T02:19:01;3.53;;;1.90;;
7471;SDS011;3777;48.722;8.110;2022-12-22T02:21:54;3.33;;;1.70;;
7471;SDS011;3777;48.722;8.110;2022-12-22T02:24:45;2.33;;;1.83;;
7471;SDS011;3777;48.722;8.110;2022-12-22T02:27:34;3.37;;;1.70;;
7471;SDS011;3777;48.722;8.110;2022-12-22T02:30:21;3.60;;;1.80;;
7471;SDS011;3777;48.722;8.110;2022-12-22T02:33:05;3.17;;;1.60;;
7471;SDS011;3777;48.722;8.110;2022-12-22T02:35:54;2.50;;;1.67;;
7471;SDS011;3777;48.722;8.110;2022-12-22T02:38:46;2.63;;;1.60;;
7471;SDS011;3777;48.722;8.110;2022-12-22T02:41:39;3.00;;;1.70;;
7471;SDS011;3777;48.722;8.110;2022-12-22T02:44:34;3.83;;;1.60;;
7471;SDS011;3777;48.722;8.110;2022-12-22T02:47:30;3.47;;;1.70;;
7471;SDS011;3777;48.722;8.110;2022-12-22T02:50:20;2.50;;;1.53;;
7471;SDS011;3777;48.722;8.110;2022-12-22T02:53:08;2.73;;;1.40;;
7471;SDS011;3777;48.722;8.110;2022-12-22T02:55:58;2.43;;;1.60;;
7471;SDS011;3777;48.722;8.110;2022-12-22T02:58:43;3.80;;;1.80;;
7471;SDS011;3777;48.722;8.110;2022-12-22T03:01:29;2.63;;;1.47;;
7471;SDS011;3777;48.722;8.110;2022-12-22T03:04:14;1.97;;;1.60;;
7471;SDS011;3777;48.722;8.110;2022-12-22T03:06:58;2.43;;;1.90;;
7471;SDS011;3777;48.722;8.110;2022-12-22T03:09:42;2.33;;;1.40;;
7471;SDS011;3777;48.722;8.110;2022-12-22T03:12:27;2.73;;;1.50;;
7471;SDS011;3777;48.722;8.110;2022-12-22T03:15:11;3.63;;;1.67;;
7471;SDS011;3777;48.722;8.110;2022-12-22T03:18:00;1.70;;;1.40;;
7471;SDS011;3777;48.722;8.110;2022-12-22T03:20:45;2.47;;;1.60;;
7471;SDS011;3777;48.722;8.110;2022-12-22T03:23:30;2.67;;;1.53;;
7471;SDS011;3777;48.722;8.110;2022-12-22T03:26:14;3.20;;;1.60;;
7471;SDS011;3777;48.722;8.110;2022-12-22T03:28:41;3.67;;;1.70;;
7471;SDS011;3777;48.722;8.110;2022-12-22T03:31:08;2.97;;;1.50;;
7471;SDS011;3777;48.722;8.110;2022-12-22T03:33:36;3.10;;;1.53;;
7471;SDS011;3777;48.722;8.110;2022-12-22T03:36:04;2.17;;;1.63;;
7471;SDS011;3777;48.722;8.110;2022-12-22T03:38:32;3.10;;;1.77;;
7471;SDS011;3777;48.722;8.110;2022-12-22T03:40:59;4.10;;;1.80;;
7471;SDS011;3777;48.722;8.110;2022-12-22T03:43:26;2.50;;;1.60;;
7471;SDS011;3777;48.722;8.110;2022-12-22T03:46:11;2.30;;;1.80;;
7471;SDS011;3777;48.722;8.110;2022-12-22T03:48:59;3.83;;;1.60;;
7471;SDS011;3777;48.722;8.110;2022-12-22T03:51:36;3.73;;;1.77;;
7471;SDS011;3777;48.722;8.110;2022-12-22T03:54:04;2.60;;;1.70;;
7471;SDS011;3777;48.722;8.110;2022-12-22T03:56:32;3.43;;;1.90;;
7471;SDS011;3777;48.722;8.110;2022-12-22T03:58:59;3.87;;;2.10;;
7471;SDS011;3777;48.722;8.110;2022-12-22T04:01:26;5.33;;;1.93;;
7471;SDS011;3777;48.722;8.110;2022-12-22T04:03:53;2.70;;;1.73;;
7471;SDS011;3777;48.722;8.110;2022-12-22T04:06:21;2.60;;;1.80;;
7471;SDS011;3777;48.722;8.110;2022-12-22T04:08:48;4.00;;;1.90;;
7471;SDS011;3777;48.722;8.110;2022-12-22T04:11:16;3.63;;;2.20;;
7471;SDS011;3777;48.722;8.110;2022-12-22T04:14:00;3.33;;;2.30;;
7471;SDS011;3777;48.722;8.110;2022-12-22T04:16:28;5.67;;;2.10;;
7471;SDS011;3777;48.722;8.110;2022-12-22T04:18:55;3.13;;;2.10;;
7471;SDS011;3777;48.722;8.110;2022-12-22T04:21:23;2.20;;;1.80;;
7471;SDS011;3777;48.722;8.110;2022-12-22T04:23:50;5.00;;;2.03;;
7471;SDS011;3777;48.722;8.110;2022-12-22T04:26:17;3.93;;;1.60;;
7471;SDS011;3777;48.722;8.110;2022-12-22T04:28:45;3.30;;;1.73;;
7471;SDS011;3777;48.722;8.110;2022-12-22T04:31:12;3.93;;;2.30;;
7471;SDS011;3777;48.722;8.110;2022-12-22T04:33:39;3.27;;;1.93;;
7471;SDS011;3777;48.722;8.110;2022-12-22T04:36:06;3.17;;;2.00;;
7471;SDS011;3777;48.722;8.110;2022-12-22T04:38:35;2.83;;;1.80;;
7471;SDS011;3777;48.722;8.110;2022-12-22T04:41:02;6.07;;;2.10;;
7471;SDS011;3777;48.722;8.110;2022-12-22T04:43:30;4.17;;;2.00;;
7471;SDS011;3777;48.722;8.110;2022-12-22T04:45:57;3.03;;;1.87;;
7471;SDS011;3777;48.722;8.110;2022-12-22T04:48:24;4.23;;;1.83;;
7471;SDS011;3777;48.722;8.110;2022-12-22T04:50:53;4.27;;;2.07;;
7471;SDS011;3777;48.722;8.110;2022-12-22T04:53:22;4.97;;;2.20;;
7471;SDS011;3777;48.722;8.110;2022-12-22T04:55:53;4.30;;;2.23;;
7471;SDS011;3777;48.722;8.110;2022-12-22T04:58:21;5.13;;;2.10;;
7471;SDS011;3777;48.722;8.110;2022-12-22T05:00:48;3.80;;;2.00;;
7471;SDS011;3777;48.722;8.110;2022-12-22T05:03:15;5.87;;;2.00;;
7471;SDS011;3777;48.722;8.110;2022-12-22T05:05:42;4.97;;;2.30;;
7471;SDS011;3777;48.722;8.110;2022-12-22T05:08:09;6.20;;;2.00;;
7471;SDS011;3777;48.722;8.110;2022-12-22T05:10:36;5.67;;;1.93;;
7471;SDS011;3777;48.722;8.110;2022-12-22T05:13:04;5.63;;;2.30;;
7471;SDS011;3777;48.722;8.110;2022-12-22T05:15:33;5.20;;;2.00;;
7471;SDS011;3777;48.722;8.110;2022-12-22T05:18:00;5.67;;;2.10;;
7471;SDS011;3777;48.722;8.110;2022-12-22T05:20:28;4.87;;;2.30;;
7471;SDS011;3777;48.722;8.110;2022-12-22T05:22:55;6.50;;;2.20;;
7471;SDS011;3777;48.722;8.110;2022-12-22T05:25:22;6.33;;;2.00;;
7471;SDS011;3777;48.722;8.110;2022-12-22T05:27:49;5.90;;;2.20;;
7471;SDS011;3777;48.722;8.110;2022-12-22T05:30:18;4.40;;;2.10;;
7471;SDS011;3777;48.722;8.110;2022-12-22T05:32:45;5.30;;;2.00;;
7471;SDS011;3777;48.722;8.110;2022-12-22T05:35:12;7.63;;;2.00;;
7471;SDS011;3777;48.722;8.110;2022-12-22T05:37:40;5.57;;;2.30;;
7471;SDS011;3777;48.722;8.110;2022-12-22T05:40:08;8.87;;;2.47;;
7471;SDS011;3777;48.722;8.110;2022-12-22T05:42:36;7.13;;;2.60;;
7471;SDS011;3777;48.722;8.110;2022-12-22T05:45:05;7.60;;;2.17;;
7471;SDS011;3777;48.722;8.110;2022-12-22T05:47:37;6.77;;;2.10;;
7471;SDS011;3777;48.722;8.110;2022-12-22T05:50:05;7.33;;;2.33;;
7471;SDS011;3777;48.722;8.110;2022-12-22T05:52:32;8.67;;;2.77;;
7471;SDS011;3777;48.722;8.110;2022-12-22T05:54:59;5.40;;;2.30;;
7471;SDS011;3777;48.722;8.110;2022-12-22T05:57:26;7.73;;;2.30;;
7471;SDS011;3777;48.722;8.110;2022-12-22T05:59:53;9.53;;;2.60;;
7471;SDS011;3777;48.722;8.110;2022-12-22T06:02:20;8.97;;;2.63;;
7471;SDS011;3777;48.722;8.110;2022-12-22T06:04:49;8.63;;;2.60;;
7471;SDS011;3777;48.722;8.110;2022-12-22T06:07:16;7.23;;;2.87;;
7471;SDS011;3777;48.722;8.110;2022-12-22T06:09:43;8.90;;;2.80;;
7471;SDS011;3777;48.722;8.110;2022-12-22T06:12:09;7.43;;;2.70;;
7471;SDS011;3777;48.722;8.110;2022-12-22T06:14:36;7.13;;;2.63;;
7471;SDS011;3777;48.722;8.110;2022-12-22T06:17:03;7.57;;;2.40;;
7471;SDS011;3777;48.722;8.110;2022-12-22T06:19:30;9.17;;;2.97;;
7471;SDS011;3777;48.722;8.110;2022-12-22T06:21:59;10.30;;;2.63;;
7471;SDS011;3777;48.722;8.110;2022-12-22T06:24:26;6.03;;;2.23;;
7471;SDS011;3777;48.722;8.110;2022-12-22T06:26:53;9.43;;;2.50;;
7471;SDS011;3777;48.722;8.110;2022-12-22T06:29:20;10.87;;;2.83;;
7471;SDS011;3777;48.722;8.110;2022-12-22T06:31:47;7.77;;;2.40;;
7471;SDS011;3777;48.722;8.110;2022-12-22T06:34:14;7.40;;;2.60;;
7471;SDS011;3777;48.722;8.110;2022-12-22T06:36:42;7.53;;;2.53;;
7471;SDS011;3777;48.722;8.110;2022-12-22T06:39:10;11.87;;;2.80;;
7471;SDS011;3777;48.722;8.110;2022-12-22T06:41:38;7.30;;;2.70;;
7471;SDS011;3777;48.722;8.110;2022-12-22T06:44:23;7.63;;;2.67;;
7471;SDS011;3777;48.722;8.110;2022-12-22T06:46:50;6.87;;;2.77;;
7471;SDS011;3777;48.722;8.110;2022-12-22T06:49:17;11.20;;;2.60;;
7471;SDS011;3777;48.722;8.110;2022-12-22T06:51:44;9.57;;;2.70;;
7471;SDS011;3777;48.722;8.110;2022-12-22T06:54:13;10.33;;;2.93;;
7471;SDS011;3777;48.722;8.110;2022-12-22T06:56:40;8.23;;;2.53;;
7471;SDS011;3777;48.722;8.110;2022-12-22T06:59:06;9.80;;;2.77;;
7471;SDS011;3777;48.722;8.110;2022-12-22T07:01:34;7.40;;;2.97;;
7471;SDS011;3777;48.722;8.110;2022-12-22T07:04:00;7.17;;;2.67;;
7471;SDS011;3777;48.722;8.110;2022-12-22T07:06:28;7.27;;;2.47;;
7471;SDS011;3777;48.722;8.110;2022-12-22T07:08:54;7.93;;;2.97;;
7471;SDS011;3777;48.722;8.110;2022-12-22T07:11:23;6.40;;;2.47;;
7471;SDS011;3777;48.722;8.110;2022-12-22T07:13:50;9.83;;;2.70;;
7471;SDS011;3777;48.722;8.110;2022-12-22T07:16:17;8.43;;;2.43;;
7471;SDS011;3777;48.722;8.110;2022-12-22T07:18:43;5.93;;;2.50;;
7471;SDS011;3777;48.722;8.110;2022-12-22T07:21:11;8.40;;;2.40;;
7471;SDS011;3777;48.722;8.110;2022-12-22T07:23:40;7.73;;;2.80;;
7471;SDS011;3777;48.722;8.110;2022-12-22T07:26:07;7.33;;;2.60;;
7471;SDS011;3777;48.722;8.110;2022-12-22T07:28:37;8.23;;;2.60;;
7471;SDS011;3777;48.722;8.110;2022-12-22T07:31:06;8.73;;;2.57;;
7471;SDS011;3777;48.722;8.110;2022-12-22T07:33:33;10.50;;;3.10;;
7471;SDS011;3777;48.722;8.110;2022-12-22T07:36:00;9.13;;;2.60;;
7471;SDS011;3777;48.722;8.110;2022-12-22T07:38:30;9.03;;;2.57;;
7471;SDS011;3777;48.722;8.110;2022-12-22T07:41:00;9.77;;;2.80;;
7471;SDS011;3777;48.722;8.110;2022-12-22T07:43:28;7.90;;;2.90;;
7471;SDS011;3777;48.722;8.110;2022-12-22T07:45:55;6.87;;;2.60;;
7471;SDS011;3777;48.722;8.110;2022-12-22T07:48:22;8.37;;;2.60;;
7471;SDS011;3777;48.722;8.110;2022-12-22T07:51:06;8.30;;;3.27;;
7471;SDS011;3777;48.722;8.110;2022-12-22T07:53:33;7.13;;;2.43;;
7471;SDS011;3777;48.722;8.110;2022-12-22T07:56:01;8.57;;;2.97;;
7471;SDS011;3777;48.722;8.110;2022-12-22T07:58:28;7.70;;;2.30;;
7471;SDS011;3777;48.722;8.110;2022-12-22T08:00:58;7.27;;;2.63;;
7471;SDS011;3777;48.722;8.110;2022-12-22T08:03:25;8.93;;;2.67;;
7471;SDS011;3777;48.722;8.110;2022-12-22T08:05:52;6.77;;;2.40;;
7471;SDS011;3777;48.722;8.110;2022-12-22T08:08:19;12.53;;;3.17;;
7471;SDS011;3777;48.722;8.110;2022-12-22T08:10:46;10.40;;;2.77;;
7471;SDS011;3777;48.722;8.110;2022-12-22T08:13:13;12.33;;;3.13;;
7471;SDS011;3777;48.722;8.110;2022-12-22T08:15:40;8.87;;;3.40;;
7471;SDS011;3777;48.722;8.110;2022-12-22T08:18:09;8.40;;;3.00;;
7471;SDS011;3777;48.722;8.110;2022-12-22T08:20:35;9.33;;;2.87;;
7471;SDS011;3777;48.722;8.110;2022-12-22T08:23:02;9.80;;;2.60;;
7471;SDS011;3777;48.722;8.110;2022-12-22T08:25:29;9.50;;;2.57;;
7471;SDS011;3777;48.722;8.110;2022-12-22T08:27:58;8.70;;;2.73;;
7471;SDS011;3777;48.722;8.110;2022-12-22T08:30:26;9.90;;;2.73;;
7471;SDS011;3777;48.722;8.110;2022-12-22T08:32:53;13.63;;;3.40;;
7471;SDS011;3777;48.722;8.110;2022-12-22T08:35:21;6.93;;;2.40;;
7471;SDS011;3777;48.722;8.110;2022-12-22T08:37:48;9.73;;;2.67;;
7471;SDS011;3777;48.722;8.110;2022-12-22T08:40:17;10.33;;;2.70;;
7471;SDS011;3777;48.722;8.110;2022-12-22T08:42:47;10.67;;;3.23;;
7471;SDS011;3777;48.722;8.110;2022-12-22T08:45:18;13.03;;;3.17;;
7471;SDS011;3777;48.722;8.110;2022-12-22T08:47:45;9.33;;;2.73;;
7471;SDS011;3777;48.722;8.110;2022-12-22T08:50:12;9.90;;;3.13;;
7471;SDS011;3777;48.722;8.110;2022-12-22T08:52:40;10.53;;;2.73;;
7471;SDS011;3777;48.722;8.110;2022-12-22T08:55:07;12.33;;;3.10;;
7471;SDS011;3777;48.722;8.110;2022-12-22T08:57:34;7.97;;;2.80;;
7471;SDS011;3777;48.722;8.110;2022-12-22T09:00:02;9.70;;;3.00;;
7471;SDS011;3777;48.722;8.110;2022-12-22T09:02:32;10.23;;;2.90;;
7471;SDS011;3777;48.722;8.110;2022-12-22T09:04:59;10.90;;;3.47;;
7471;SDS011;3777;48.722;8.110;2022-12-22T09:07:27;8.80;;;2.80;;
7471;SDS011;3777;48.722;8.110;2022-12-22T09:09:55;10.27;;;2.97;;
7471;SDS011;3777;48.722;8.110;2022-12-22T09:12:22;10.67;;;3.27;;
7471;SDS011;3777;48.722;8.110;2022-12-22T09:14:49;9.23;;;2.80;;
7471;SDS011;3777;48.722;8.110;2022-12-22T09:17:16;9.07;;;2.60;;
7471;SDS011;3777;48.722;8.110;2022-12-22T09:19:43;10.83;;;3.40;;
7471;SDS011;3777;48.722;8.110;2022-12-22T09:22:10;8.50;;;2.83;;
7471;SDS011;3777;48.722;8.110;2022-12-22T09:24:37;8.27;;;2.60;;
7471;SDS011;3777;48.722;8.110;2022-12-22T09:27:05;7.97;;;2.40;;
7471;SDS011;3777;48.722;8.110;2022-12-22T09:29:33;7.33;;;2.60;;
7471;SDS011;3777;48.722;8.110;2022-12-22T09:32:01;7.63;;;2.50;;
7471;SDS011;3777;48.722;8.110;2022-12-22T09:34:28;6.63;;;2.80;;
7471;SDS011;3777;48.722;8.110;2022-12-22T09:36:55;9.77;;;2.30;;
7471;SDS011;3777;48.722;8.110;2022-12-22T09:39:22;9.30;;;2.77;;
7471;SDS011;3777;48.722;8.110;2022-12-22T09:41:49;7.40;;;2.33;;
7471;SDS011;3777;48.722;8.110;2022-12-22T09:44:22;10.70;;;3.03;;
7471;SDS011;3777;48.722;8.110;2022-12-22T09:46:51;8.97;;;3.17;;
7471;SDS011;3777;48.722;8.110;2022-12-22T09:49:20;7.33;;;2.50;;
7471;SDS011;3777;48.722;8.110;2022-12-22T09:51:48;8.43;;;2.50;;
7471;SDS011;3777;48.722;8.110;2022-12-22T09:54:19;10.60;;;2.70;;
7471;SDS011;3777;48.722;8.110;2022-12-22T09:56:47;10.87;;;3.17;;
7471;SDS011;3777;48.722;8.110;2022-12-22T09:59:15;12.50;;;2.50;;
7471;SDS011;3777;48.722;8.110;2022-12-22T10:01:56;8.07;;;2.60;;
7471;SDS011;3777;48.722;8.110;2022-12-22T10:04:35;12.73;;;2.67;;
7471;SDS011;3777;48.722;8.110;2022-12-22T10:07:13;8.10;;;2.73;;
7471;SDS011;3777;48.722;8.110;2022-12-22T10:09:47;9.37;;;2.63;;
7471;SDS011;3777;48.722;8.110;2022-12-22T10:12:15;9.27;;;2.67;;
7471;SDS011;3777;48.722;8.110;2022-12-22T10:14:44;6.87;;;2.77;;
7471;SDS011;3777;48.722;8.110;2022-12-22T10:17:14;9.33;;;2.97;;
7471;SDS011;3777;48.722;8.110;2022-12-22T10:19:47;7.90;;;2.80;;
7471;SDS011;3777;48.722;8.110;2022-12-22T10:22:17;8.87;;;2.73;;
7471;SDS011;3777;48.722;8.110;2022-12-22T10:24:53;9.17;;;2.87;;
7471;SDS011;3777;48.722;8.110;2022-12-22T10:27:20;8.37;;;2.63;;
7471;SDS011;3777;48.722;8.110;2022-12-22T10:29:50;10.87;;;3.33;;
7471;SDS011;3777;48.722;8.110;2022-12-22T10:32:19;11.70;;;3.33;;
7471;SDS011;3777;48.722;8.110;2022-12-22T10:37:35;8.53;;;2.97;;
7471;SDS011;3777;48.722;8.110;2022-12-22T10:40:13;6.60;;;2.60;;
7471;SDS011;3777;48.722;8.110;2022-12-22T10:42:45;10.00;;;2.70;;
7471;SDS011;3777;48.722;8.110;2022-12-22T10:45:16;8.23;;;2.57;;
7471;SDS011;3777;48.722;8.110;2022-12-22T10:47:47;11.17;;;3.10;;
7471;SDS011;3777;48.722;8.110;2022-12-22T10:50:16;7.17;;;2.57;;
7471;SDS011;3777;48.722;8.110;2022-12-22T10:52:48;5.80;;;2.53;;
7471;SDS011;3777;48.722;8.110;2022-12-22T10:55:18;11.17;;;2.97;;
7471;SDS011;3777;48.722;8.110;2022-12-22T10:57:46;9.47;;;2.90;;
7471;SDS011;3777;48.722;8.110;2022-12-22T11:00:23;11.43;;;2.70;;
7471;SDS011;3777;48.722;8.110;2022-12-22T11:02:54;10.53;;;3.83;;
7471;SDS011;3777;48.722;8.110;2022-12-22T11:05:22;8.67;;;3.30;;
7471;SDS011;3777;48.722;8.110;2022-12-22T11:07:49;10.33;;;3.30;;
7471;SDS011;3777;48.722;8.110;2022-12-22T11:10:18;13.87;;;3.60;;
7471;SDS011;3777;48.722;8.110;2022-12-22T11:13:06;10.80;;;3.93;;
7471;SDS011;3777;48.722;8.110;2022-12-22T11:15:50;11.03;;;3.33;;
7471;SDS011;3777;48.722;8.110;2022-12-22T11:18:28;15.27;;;4.07;;
7471;SDS011;3777;48.722;8.110;2022-12-22T11:21:06;10.93;;;3.30;;
7471;SDS011;3777;48.722;8.110;2022-12-22T11:23:40;11.97;;;3.67;;
7471;SDS011;3777;48.722;8.110;2022-12-22T11:26:15;13.70;;;3.70;;
7471;SDS011;3777;48.722;8.110;2022-12-22T11:28:54;12.33;;;2.93;;
7471;SDS011;3777;48.722;8.110;2022-12-22T11:31:38;8.83;;;2.93;;
7471;SDS011;3777;48.722;8.110;2022-12-22T11:34:23;9.57;;;3.10;;
7471;SDS011;3777;48.722;8.110;2022-12-22T11:37:01;13.23;;;3.10;;
7471;SDS011;3777;48.722;8.110;2022-12-22T11:39:39;8.70;;;2.97;;
7471;SDS011;3777;48.722;8.110;2022-12-22T11:42:16;11.90;;;3.67;;
7471;SDS011;3777;48.722;8.110;2022-12-22T11:44:54;9.73;;;3.60;;
7471;SDS011;3777;48.722;8.110;2022-12-22T11:47:34;10.13;;;3.13;;
7471;SDS011;3777;48.722;8.110;2022-12-22T11:50:12;8.27;;;2.43;;
7471;SDS011;3777;48.722;8.110;2022-12-22T11:53:04;12.20;;;3.17;;
7471;SDS011;3777;48.722;8.110;2022-12-22T11:55:52;11.50;;;3.27;;
7471;SDS011;3777;48.722;8.110;2022-12-22T11:58:32;8.83;;;2.77;;
7471;SDS011;3777;48.722;8.110;2022-12-22T12:01:13;8.27;;;3.20;;
7471;SDS011;3777;48.722;8.110;2022-12-22T12:04:03;8.83;;;2.80;;
7471;SDS011;3777;48.722;8.110;2022-12-22T12:09:36;9.10;;;2.80;;
7471;SDS011;3777;48.722;8.110;2022-12-22T12:12:13;12.17;;;3.37;;
7471;SDS011;3777;48.722;8.110;2022-12-22T12:14:47;10.63;;;2.53;;
7471;SDS011;3777;48.722;8.110;2022-12-22T12:17:25;12.10;;;3.50;;
7471;SDS011;3777;48.722;8.110;2022-12-22T12:23:01;9.63;;;3.00;;
7471;SDS011;3777;48.722;8.110;2022-12-22T12:25:39;6.17;;;2.37;;
7471;SDS011;3777;48.722;8.110;2022-12-22T12:28:18;7.53;;;2.33;;
7471;SDS011;3777;48.722;8.110;2022-12-22T12:30:50;8.97;;;2.80;;
7471;SDS011;3777;48.722;8.110;2022-12-22T12:33:21;6.33;;;2.07;;
7471;SDS011;3777;48.722;8.110;2022-12-22T12:35:58;8.93;;;2.90;;
7471;SDS011;3777;48.722;8.110;2022-12-22T12:38:32;8.00;;;2.27;;
7471;SDS011;3777;48.722;8.110;2022-12-22T12:41:09;7.43;;;2.73;;
7471;SDS011;3777;48.722;8.110;2022-12-22T12:43:41;6.90;;;2.33;;
7471;SDS011;3777;48.722;8.110;2022-12-22T12:52:15;6.33;;;2.47;;
7471;SDS011;3777;48.722;8.110;2022-12-22T12:54:43;8.07;;;2.40;;
7471;SDS011;3777;48.722;8.110;2022-12-22T12:57:22;8.40;;;2.57;;
7471;SDS011;3777;48.722;8.110;2022-12-22T12:59:53;5.87;;;2.47;;
7471;SDS011;3777;48.722;8.110;2022-12-22T13:02:29;8.03;;;2.27;;
7471;SDS011;3777;48.722;8.110;2022-12-22T13:13:59;6.50;;;2.20;;
7471;SDS011;3777;48.722;8.110;2022-12-22T13:16:28;7.03;;;2.27;;
7471;SDS011;3777;48.722;8.110;2022-12-22T13:18:58;5.53;;;2.33;;
7471;SDS011;3777;48.722;8.110;2022-12-22T13:21:29;6.33;;;2.67;;
7471;SDS011;3777;48.722;8.110;2022-12-22T13:24:03;5.43;;;2.27;;
7471;SDS011;3777;48.722;8.110;2022-12-22T13:26:40;7.43;;;2.30;;
7471;SDS011;3777;48.722;8.110;2022-12-22T13:29:08;8.40;;;2.50;;
7471;SDS011;3777;48.722;8.110;2022-12-22T13:31:45;6.80;;;2.40;;
7471;SDS011;3777;48.722;8.110;2022-12-22T13:34:24;10.27;;;2.47;;
7471;SDS011;3777;48.722;8.110;2022-12-22T13:37:01;12.67;;;2.87;;
7471;SDS011;3777;48.722;8.110;2022-12-22T13:39:37;11.20;;;3.00;;
7471;SDS011;3777;48.722;8.110;2022-12-22T13:42:06;7.57;;;2.87;;
7471;SDS011;3777;48.722;8.110;2022-12-22T13:44:36;14.50;;;3.33;;
7471;SDS011;3777;48.722;8.110;2022-12-22T13:47:04;12.83;;;3.33;;
7471;SDS011;3777;48.722;8.110;2022-12-22T13:49:36;11.73;;;3.23;;
7471;SDS011;3777;48.722;8.110;2022-12-22T13:52:05;12.07;;;3.70;;
7471;SDS011;3777;48.722;8.110;2022-12-22T13:54:37;15.83;;;3.57;;
7471;SDS011;3777;48.722;8.110;2022-12-22T13:57:12;14.80;;;3.30;;
7471;SDS011;3777;48.722;8.110;2022-12-22T13:59:42;13.40;;;3.43;;
7471;SDS011;3777;48.722;8.110;2022-12-22T14:02:13;12.10;;;3.30;;
7471;SDS011;3777;48.722;8.110;2022-12-22T14:04:42;11.97;;;3.97;;
7471;SDS011;3777;48.722;8.110;2022-12-22T14:07:10;10.53;;;3.20;;
7471;SDS011;3777;48.722;8.110;2022-12-22T14:09:42;11.07;;;3.23;;
7471;SDS011;3777;48.722;8.110;2022-12-22T14:12:12;11.37;;;3.00;;
7471;SDS011;3777;48.722;8.110;2022-12-22T14:14:41;13.67;;;3.07;;
7471;SDS011;3777;48.722;8.110;2022-12-22T14:17:16;9.43;;;3.10;;
7471;SDS011;3777;48.722;8.110;2022-12-22T14:19:47;10.90;;;2.47;;
7471;SDS011;3777;48.722;8.110;2022-12-22T14:22:16;12.53;;;3.37;;
7471;SDS011;3777;48.722;8.110;2022-12-22T14:24:47;8.60;;;2.80;;
7471;SDS011;3777;48.722;8.110;2022-12-22T14:27:22;8.03;;;3.00;;
7471;SDS011;3777;48.722;8.110;2022-12-22T14:29:56;9.97;;;3.00;;
7471;SDS011;3777;48.722;8.110;2022-12-22T14:32:33;8.00;;;2.80;;
7471;SDS011;3777;48.722;8.110;2022-12-22T14:35:05;9.47;;;2.83;;
7471;SDS011;3777;48.722;8.110;2022-12-22T14:37:51;13.67;;;3.30;;
7471;SDS011;3777;48.722;8.110;2022-12-22T14:40:30;14.00;;;4.10;;
7471;SDS011;3777;48.722;8.110;2022-12-22T14:43:00;13.67;;;4.20;;
7471;SDS011;3777;48.722;8.110;2022-12-22T14:45:29;13.40;;;3.80;;
7471;SDS011;3777;48.722;8.110;2022-12-22T14:47:56;12.50;;;4.07;;
7471;SDS011;3777;48.722;8.110;2022-12-22T14:50:24;13.93;;;4.10;;
7471;SDS011;3777;48.722;8.110;2022-12-22T14:52:53;16.10;;;4.00;;
7471;SDS011;3777;48.722;8.110;2022-12-22T14:55:22;12.53;;;3.90;;
7471;SDS011;3777;48.722;8.110;2022-12-22T14:57:53;12.43;;;3.67;;
7471;SDS011;3777;48.722;8.110;2022-12-22T15:03:24;14.60;;;4.00;;
7471;SDS011;3777;48.722;8.110;2022-12-22T15:05:56;13.13;;;3.97;;
7471;SDS011;3777;48.722;8.110;2022-12-22T15:08:47;14.07;;;4.37;;
7471;SDS011;3777;48.722;8.110;2022-12-22T15:11:14;14.83;;;4.20;;
7471;SDS011;3777;48.722;8.110;2022-12-22T15:13:43;15.03;;;3.97;;
7471;SDS011;3777;48.722;8.110;2022-12-22T15:16:14;15.47;;;4.17;;
7471;SDS011;3777;48.722;8.110;2022-12-22T15:18:43;15.50;;;4.20;;
7471;SDS011;3777;48.722;8.110;2022-12-22T15:21:12;13.57;;;4.43;;
7471;SDS011;3777;48.722;8.110;2022-12-22T15:23:40;13.70;;;4.30;;
7471;SDS011;3777;48.722;8.110;2022-12-22T15:26:07;15.90;;;4.57;;
7471;SDS011;3777;48.722;8.110;2022-12-22T15:28:34;16.53;;;4.07;;
7471;SDS011;3777;48.722;8.110;2022-12-22T15:31:02;14.37;;;4.33;;
7471;SDS011;3777;48.722;8.110;2022-12-22T15:33:32;14.33;;;4.50;;
7471;SDS011;3777;48.722;8.110;2022-12-22T15:35:59;16.53;;;4.27;;
7471;SDS011;3777;48.722;8.110;2022-12-22T15:38:27;16.53;;;4.50;;
7471;SDS011;3777;48.722;8.110;2022-12-22T15:40:54;14.97;;;4.47;;
7471;SDS011;3777;48.722;8.110;2022-12-22T15:43:21;16.23;;;4.87;;
7471;SDS011;3777;48.722;8.110;2022-12-22T15:45:48;17.10;;;5.20;;
7471;SDS011;3777;48.722;8.110;2022-12-22T15:48:16;15.67;;;4.20;;
7471;SDS011;3777;48.722;8.110;2022-12-22T15:50:49;17.40;;;4.73;;
7471;SDS011;3777;48.722;8.110;2022-12-22T15:53:17;17.43;;;5.00;;
7471;SDS011;3777;48.722;8.110;2022-12-22T15:55:46;16.90;;;4.97;;
7471;SDS011;3777;48.722;8.110;2022-12-22T15:58:15;15.03;;;4.37;;
7471;SDS011;3777;48.722;8.110;2022-12-22T16:00:46;17.80;;;4.67;;
7471;SDS011;3777;48.722;8.110;2022-12-22T16:03:13;18.30;;;4.67;;
7471;SDS011;3777;48.722;8.110;2022-12-22T16:05:40;13.93;;;4.40;;
7471;SDS011;3777;48.722;8.110;2022-12-22T16:08:09;15.67;;;4.57;;
7471;SDS011;3777;48.722;8.110;2022-12-22T16:10:40;17.13;;;4.73;;
7471;SDS011;3777;48.722;8.110;2022-12-22T16:13:09;14.70;;;4.30;;
7471;SDS011;3777;48.722;8.110;2022-12-22T16:15:38;16.03;;;4.50;;
7471;SDS011;3777;48.722;8.110;2022-12-22T16:18:05;14.20;;;4.20;;
7471;SDS011;3777;48.722;8.110;2022-12-22T16:20:34;16.83;;;3.90;;